createdAt,value
2019-05-15T00:00:23.210Z,3.30
2019-05-15T00:05:19.199Z,3.27
2019-05-15T00:10:15.162Z,3.40
2019-05-15T00:15:11.243Z,3.50
2019-05-15T00:20:09.626Z,3.70
2019-05-15T00:25:05.148Z,3.63
2019-05-15T00:30:01.113Z,3.20
2019-05-15T00:34:58.291Z,3.43
2019-05-15T00:39:54.185Z,3.10
2019-05-15T00:44:50.038Z,3.27
2019-05-15T00:49:45.916Z,3.03
2019-05-15T00:54:41.839Z,3.20
2019-05-15T00:59:38.975Z,3.97
2019-05-15T01:04:35.080Z,3.77
2019-05-15T01:09:31.224Z,4.17
2019-05-15T01:14:27.869Z,3.63
2019-05-15T01:19:23.835Z,3.70
2019-05-15T01:24:19.847Z,4.00
2019-05-15T01:29:15.724Z,3.80
2019-05-15T01:34:12.168Z,3.67
2019-05-15T01:39:08.131Z,3.73
2019-05-15T01:44:04.061Z,3.90
2019-05-15T01:49:00.027Z,3.43
2019-05-15T01:53:58.250Z,3.83
2019-05-15T01:58:53.560Z,4.20
2019-05-15T02:03:49.495Z,3.90
2019-05-15T02:08:45.391Z,4.60
2019-05-15T02:13:41.262Z,3.80
2019-05-15T02:18:39.198Z,4.23
2019-05-15T02:23:35.210Z,4.27
2019-05-15T02:28:31.087Z,4.03
2019-05-15T02:33:29.768Z,4.13
2019-05-15T02:38:24.820Z,4.60
2019-05-15T02:43:20.668Z,4.10
2019-05-15T02:48:19.755Z,4.13
2019-05-15T02:53:14.388Z,4.07
2019-05-15T02:58:10.735Z,4.40
2019-05-15T03:03:09.268Z,4.30
2019-05-15T03:08:04.422Z,4.30
2019-05-15T03:13:00.513Z,4.57
2019-05-15T03:18:00.097Z,4.20
2019-05-15T03:22:54.689Z,4.17
2019-05-15T03:27:50.541Z,4.70
2019-05-15T03:33:00.540Z,4.03
2019-05-15T03:37:44.560Z,4.50
2019-05-15T03:42:40.414Z,4.50
2019-05-15T03:47:39.702Z,4.20
2019-05-15T03:52:34.064Z,4.50
2019-05-15T03:57:30.611Z,4.40
2019-05-15T04:02:28.796Z,4.30
2019-05-15T04:07:24.407Z,4.37
2019-05-15T04:12:20.375Z,4.37
2019-05-15T04:17:19.515Z,4.13
2019-05-15T04:22:14.387Z,4.50
2019-05-15T04:27:10.835Z,4.20
2019-05-15T04:32:10.140Z,4.27
2019-05-15T04:37:05.007Z,4.63
2019-05-15T04:42:00.973Z,4.47
2019-05-15T04:46:59.498Z,4.83
2019-05-15T04:51:54.521Z,4.23
2019-05-15T04:56:50.531Z,5.10
2019-05-15T05:01:46.448Z,5.00
2019-05-15T05:06:42.327Z,4.30
2019-05-15T05:11:38.495Z,3.40
2019-05-15T05:16:34.431Z,3.43
2019-05-15T05:21:30.374Z,3.43
2019-05-15T05:26:29.198Z,3.23
2019-05-15T05:31:24.176Z,2.77
2019-05-15T05:36:20.460Z,2.53
2019-05-15T05:41:18.835Z,2.53
2019-05-15T05:46:14.189Z,2.70
2019-05-15T05:51:10.097Z,2.30
2019-05-15T05:56:08.622Z,3.30
2019-05-15T06:01:03.955Z,2.33
2019-05-15T06:05:59.962Z,2.90
2019-05-15T06:10:58.312Z,2.70
2019-05-15T06:15:53.608Z,2.20
2019-05-15T06:20:50.001Z,2.93
2019-05-15T06:25:48.393Z,2.47
2019-05-15T06:30:43.917Z,2.73
2019-05-15T06:35:40.040Z,2.70
2019-05-15T06:40:36.074Z,2.70
2019-05-15T06:45:32.096Z,2.47
2019-05-15T06:50:31.986Z,2.43
2019-05-15T06:55:28.883Z,2.50
2019-05-15T07:00:25.036Z,1.40
2019-05-15T07:05:21.210Z,2.17
2019-05-15T07:10:19.009Z,2.30
2019-05-15T07:15:15.162Z,2.27
2019-05-15T07:20:11.339Z,2.23
2019-05-15T07:25:08.867Z,2.47
2019-05-15T07:30:07.663Z,2.70
2019-05-15T07:35:04.992Z,2.40
2019-05-15T07:40:00.963Z,2.50
2019-05-15T07:44:58.862Z,2.40
2019-05-15T07:49:54.586Z,2.33
2019-05-15T07:54:50.506Z,2.40
2019-05-15T07:59:48.022Z,2.60
2019-05-15T08:04:43.966Z,2.57
2019-05-15T08:09:40.054Z,2.33
2019-05-15T08:14:38.658Z,2.70
2019-05-15T08:19:33.855Z,2.07
2019-05-15T08:24:30.060Z,2.30
2019-05-15T08:29:25.891Z,2.40
2019-05-15T08:34:21.940Z,2.20
2019-05-15T08:39:19.087Z,2.40
2019-05-15T08:44:14.995Z,2.30
2019-05-15T08:49:10.870Z,3.30
2019-05-15T08:54:08.507Z,2.60
2019-05-15T08:59:04.797Z,2.77
2019-05-15T09:04:00.780Z,2.87
2019-05-15T09:08:58.521Z,2.80
2019-05-15T09:13:54.730Z,2.90
2019-05-15T09:18:50.557Z,3.20
2019-05-15T09:23:48.934Z,3.20
2019-05-15T09:28:44.354Z,3.10
2019-05-15T09:33:40.593Z,2.67
2019-05-15T09:38:38.828Z,2.75
2019-05-15T09:43:34.216Z,3.05
2019-05-15T09:48:30.082Z,2.55
2019-05-15T09:53:28.492Z,3.10
2019-05-15T09:58:23.709Z,2.62
2019-05-15T10:03:19.557Z,2.65
2019-05-15T10:08:15.538Z,2.83
2019-05-15T10:13:11.515Z,3.10
2019-05-15T10:18:09.881Z,2.80
2019-05-15T10:23:05.363Z,2.85
2019-05-15T10:28:01.209Z,3.20
2019-05-15T10:32:57.177Z,2.67
2019-05-15T10:37:53.319Z,2.85
2019-05-15T10:42:49.667Z,2.90
2019-05-15T10:47:45.731Z,2.75
2019-05-15T10:52:41.701Z,2.83
2019-05-15T10:57:43.444Z,2.87
2019-05-15T11:02:35.435Z,2.40
2019-05-15T11:07:31.294Z,2.33
2019-05-15T11:12:29.293Z,2.45
2019-05-15T11:17:24.951Z,2.50
2019-05-15T11:22:20.941Z,2.20
2019-05-15T11:27:18.998Z,2.10
2019-05-15T11:32:14.826Z,2.27
2019-05-15T11:37:10.826Z,2.40
2019-05-15T11:42:08.851Z,2.30
2019-05-15T11:47:04.587Z,2.45
2019-05-15T11:52:00.854Z,2.40
2019-05-15T11:56:59.452Z,2.37
2019-05-15T12:01:54.533Z,2.40
2019-05-15T12:06:58.951Z,2.30
2019-05-15T12:11:48.264Z,2.40
2019-05-15T12:17:01.247Z,2.10
2019-05-15T12:21:42.037Z,2.00
2019-05-15T12:26:39.481Z,2.20
2019-05-15T12:31:38.630Z,1.95
2019-05-15T12:36:50.858Z,1.82
2019-05-15T13:01:22.390Z,2.00
2019-05-15T13:06:19.234Z,10.35
2019-05-15T13:11:17.829Z,1.70
2019-05-15T13:16:13.228Z,1.77
2019-05-15T13:21:09.190Z,1.52
2019-05-15T13:26:12.781Z,1.50
2019-05-15T13:31:03.113Z,1.50
2019-05-15T13:35:59.130Z,1.70
2019-05-15T13:40:55.016Z,1.70
2019-05-15T13:45:51.061Z,1.42
2019-05-15T13:50:48.241Z,1.25
2019-05-15T13:55:45.076Z,1.70
2019-05-15T14:00:41.130Z,1.90
2019-05-15T14:05:38.353Z,1.67
2019-05-15T14:10:34.730Z,1.50
2019-05-15T14:15:30.811Z,1.67
2019-05-15T14:20:26.770Z,1.87
2019-05-15T14:25:22.632Z,1.47
2019-05-15T14:30:18.495Z,1.73
2019-05-15T14:35:14.458Z,1.77
2019-05-15T14:40:10.386Z,1.60
2019-05-15T14:45:08.762Z,1.50
2019-05-15T14:50:04.892Z,1.50
2019-05-15T14:55:04.083Z,1.80
2019-05-15T15:00:00.169Z,1.80
2019-05-15T15:04:59.201Z,1.70
2019-05-15T15:09:54.092Z,1.50
2019-05-15T15:14:50.178Z,1.67
2019-05-15T15:19:50.791Z,1.53
2019-05-15T15:24:43.949Z,1.70
2019-05-15T15:29:40.293Z,1.70
2019-05-15T15:34:38.782Z,1.40
2019-05-15T15:39:35.127Z,1.57
2019-05-15T15:44:31.178Z,1.53
2019-05-15T15:49:27.950Z,2.27
2019-05-15T15:54:24.062Z,1.70
2019-05-15T15:59:19.930Z,2.10
2019-05-15T16:04:16.084Z,1.93
2019-05-15T16:09:11.953Z,2.37
2019-05-15T16:14:09.163Z,2.00
2019-05-15T16:19:05.161Z,2.00
2019-05-15T16:24:13.778Z,2.40
2019-05-15T16:29:01.648Z,2.17
2019-05-15T16:33:58.609Z,2.20
2019-05-15T16:39:05.263Z,2.20
2019-05-15T16:43:52.309Z,2.10
2019-05-15T16:48:49.449Z,2.40
2019-05-15T16:53:45.747Z,2.40
2019-05-15T16:58:41.637Z,2.20
2019-05-15T17:03:38.152Z,2.20
2019-05-15T17:08:34.135Z,2.60
2019-05-15T17:13:30.071Z,2.97
2019-05-15T17:18:26.314Z,2.30
2019-05-15T17:23:22.367Z,2.73
2019-05-15T17:28:18.789Z,2.13
2019-05-15T17:33:14.662Z,2.13
2019-05-15T17:38:10.637Z,2.37
2019-05-15T17:43:09.204Z,2.50
2019-05-15T17:48:04.389Z,3.30
2019-05-15T17:53:00.355Z,2.60
2019-05-15T17:57:58.333Z,3.20
2019-05-15T18:02:54.017Z,2.27
2019-05-15T18:07:49.886Z,3.20
2019-05-15T18:12:45.724Z,2.53
2019-05-15T18:17:41.715Z,3.00
2019-05-15T18:22:38.057Z,3.00
2019-05-15T18:27:33.917Z,2.97
2019-05-15T18:32:29.809Z,2.90
2019-05-15T18:37:28.155Z,3.20
2019-05-15T18:42:23.613Z,4.43
2019-05-15T18:47:19.585Z,3.63
2019-05-15T18:52:18.012Z,3.30
2019-05-15T18:57:13.218Z,3.80
2019-05-15T19:02:09.292Z,3.77
2019-05-15T19:07:05.266Z,3.33
2019-05-15T19:12:01.229Z,3.30
2019-05-15T19:16:59.087Z,2.97
2019-05-15T19:21:55.143Z,7.97
2019-05-15T19:26:51.084Z,9.37
2019-05-15T19:31:47.062Z,4.40
2019-05-15T19:36:42.921Z,3.40
2019-05-15T19:41:38.956Z,3.30
2019-05-15T19:46:34.980Z,3.23
2019-05-15T19:51:30.898Z,3.97
2019-05-15T19:56:27.613Z,2.87
2019-05-15T20:01:28.024Z,3.03
2019-05-15T20:06:23.219Z,3.50
2019-05-15T20:11:19.383Z,3.37
2019-05-15T20:16:18.319Z,4.20
2019-05-15T20:21:13.100Z,3.87
2019-05-15T20:26:09.077Z,4.23
2019-05-15T20:31:05.038Z,4.43
2019-05-15T20:36:00.889Z,3.70
2019-05-15T20:40:59.725Z,3.63
2019-05-15T20:45:54.699Z,3.67
2019-05-15T20:50:50.695Z,4.20
2019-05-15T20:55:48.459Z,4.23
2019-05-15T21:00:44.270Z,3.90
2019-05-15T21:05:40.498Z,3.80
2019-05-15T21:10:42.729Z,3.43
2019-05-15T21:15:34.191Z,3.73
2019-05-15T21:20:30.150Z,3.17
2019-05-15T21:25:28.082Z,3.43
2019-05-15T21:30:23.892Z,4.07
2019-05-15T21:35:20.135Z,3.97
2019-05-15T21:40:16.096Z,4.30
2019-05-15T21:45:14.473Z,4.60
2019-05-15T21:50:10.446Z,5.00
2019-05-15T21:55:08.932Z,4.53
2019-05-15T22:00:08.682Z,4.43
2019-05-15T22:05:04.514Z,4.70
2019-05-15T22:10:00.594Z,4.13
2019-05-15T22:14:58.131Z,4.60
2019-05-15T22:19:54.038Z,5.03
2019-05-15T22:24:49.993Z,5.10
2019-05-15T22:29:48.083Z,4.87
2019-05-15T22:34:43.708Z,4.67
2019-05-15T22:39:39.574Z,5.03
2019-05-15T22:44:35.811Z,4.70
2019-05-15T22:49:31.670Z,4.90
2019-05-15T22:54:28.070Z,5.47
2019-05-15T22:59:24.270Z,5.47
2019-05-15T23:04:20.348Z,5.00
2019-05-15T23:09:16.260Z,6.30
2019-05-15T23:14:12.222Z,5.90
2019-05-15T23:19:08.382Z,5.73
2019-05-15T23:24:04.610Z,6.10
2019-05-15T23:29:00.585Z,5.70
2019-05-15T23:33:56.432Z,6.40
2019-05-15T23:38:52.406Z,5.83
2019-05-15T23:43:48.418Z,6.33
2019-05-15T23:48:44.259Z,5.80
2019-05-15T23:53:40.123Z,6.60
2019-05-15T23:58:38.011Z,5.30
